Aviation Digital Data Service (ADDS)

Output produced by METARs form (0104 UTC 06 December 2020)
found at http://aviationweather.gov/metar/data/
 
KSNS 060053Z 33009KT 10SM CLR 12/07 A3028 RMK AO2 SLP263 T01220072
KSNS 052339Z 0600/0624 33010KT P6SM SCT150 BKN200 
     FM060130 30005KT P6SM SCT012 BKN150 OVC200 
     FM060300 VRB03KT 6SM BR BKN010 OVC150 
     FM061200 VRB04KT P6SM SCT015 BKN030 
     FM061600 28007KT P6SM SCT020 BKN035 
     FM062100 30011KT P6SM FEW025 FEW040
       
KMRY 060054Z 26006KT 10SM SCT012 12/08 A3028 RMK AO2 SLP267 T01170083
KMRY 052339Z 0600/0624 25006KT P6SM BKN150 OVC200 
     FM060130 VRB03KT P6SM FEW005 SCT010 OVC150 
     FM060300 VRB02KT 6SM BR BKN010 OVC150 
     FM061200 VRB05KT P6SM SCT015 BKN025 
     FM062000 33007KT P6SM FEW015 SCT020 
     FM062300 VRB05KT P6SM SCT010
       
KSJC 060053Z 30005KT 9SM FEW001 BKN080 BKN150 13/02 A3026 RMK AO2 SLP246 T01330022
KSJC 052339Z 0600/0624 35006KT P6SM BKN150 OVC200 
     FM060200 31006KT P6SM FEW025 OVC150 
     FM060600 VRB04KT P6SM SCT020 BKN030 
     FM061800 29007KT P6SM FEW025 SCT035 
     FM062200 31011KT P6SM FEW040
       
KRHV 052350Z VRB04KT 10SM SCT080 BKN150 16/03 A3023
KSFO 060056Z 33009KT 10SM FEW009 BKN180 BKN200 12/08 A3025 RMK AO2 SLP245 T01220083
KSFO 052339Z 0600/0706 29008KT P6SM BKN150 OVC200 
     FM060200 29007KT P6SM FEW008 OVC150 
     FM060600 VRB05KT P6SM FEW008 BKN025 OVC040 
     FM062000 32005KT P6SM FEW008 FEW025 SCT040 
     FM070000 30011KT P6SM FEW008 
     FM070500 28005KT P6SM SKC WS020/01025KT
       
KLVK 060053Z 26007KT 10SM CLR 13/01 A3025 RMK AO2 SLP242 T01330006
KLVK 052339Z 0600/0624 30006KT P6SM SCT150 BKN200 
     FM060200 VRB03KT P6SM FEW025 BKN150 OVC200 
     FM060900 VRB02KT P6SM SCT025 BKN050 OVC150 
     FM061200 00000KT P6SM BKN020 
     FM061800 VRB03KT P6SM FEW025 
     FM062100 01007KT P6SM SKC
       
KMCE 060053Z AUTO 00000KT 3SM HZ CLR 16/02 A3021 RMK AO2 SLP230 T01560017
KMCE 052328Z 0600/0624 VRB04KT P6SM BKN200 
     TEMPO 0600/0604 5SM HZ